sensor_id;sensor_type;location;lat;lon;timestamp;P1;durP1;ratioP1;P2;durP2;ratioP2
25553;SDS011;13446;50.926;5.332;2023-11-21T00:02:22;70.00;;;25.63;;
25553;SDS011;13446;50.926;5.332;2023-11-21T00:04:48;68.93;;;24.90;;
25553;SDS011;13446;50.926;5.332;2023-11-21T00:07:14;71.88;;;24.17;;
25553;SDS011;13446;50.926;5.332;2023-11-21T00:09:40;75.20;;;24.70;;
25553;SDS011;13446;50.926;5.332;2023-11-21T00:12:07;68.60;;;24.08;;
25553;SDS011;13446;50.926;5.332;2023-11-21T00:14:39;63.45;;;22.38;;
25553;SDS011;13446;50.926;5.332;2023-11-21T00:17:05;62.75;;;21.92;;
25553;SDS011;13446;50.926;5.332;2023-11-21T00:19:31;65.47;;;23.02;;
25553;SDS011;13446;50.926;5.332;2023-11-21T00:21:58;63.75;;;22.85;;
25553;SDS011;13446;50.926;5.332;2023-11-21T00:24:24;62.85;;;21.23;;
25553;SDS011;13446;50.926;5.332;2023-11-21T00:26:51;65.82;;;23.63;;
25553;SDS011;13446;50.926;5.332;2023-11-21T00:29:16;70.82;;;23.10;;
25553;SDS011;13446;50.926;5.332;2023-11-21T00:31:58;61.10;;;22.25;;
25553;SDS011;13446;50.926;5.332;2023-11-21T00:34:24;63.50;;;22.63;;
25553;SDS011;13446;50.926;5.332;2023-11-21T00:37:04;58.58;;;22.85;;
25553;SDS011;13446;50.926;5.332;2023-11-21T00:39:31;62.47;;;23.60;;
25553;SDS011;13446;50.926;5.332;2023-11-21T00:41:58;61.15;;;23.02;;
25553;SDS011;13446;50.926;5.332;2023-11-21T00:44:26;54.20;;;22.73;;
25553;SDS011;13446;50.926;5.332;2023-11-21T00:46:52;67.30;;;23.17;;
25553;SDS011;13446;50.926;5.332;2023-11-21T00:49:18;61.97;;;23.05;;
25553;SDS011;13446;50.926;5.332;2023-11-21T00:51:45;61.15;;;22.95;;
25553;SDS011;13446;50.926;5.332;2023-11-21T00:54:11;63.75;;;23.48;;
25553;SDS011;13446;50.926;5.332;2023-11-21T00:56:37;60.03;;;23.08;;
25553;SDS011;13446;50.926;5.332;2023-11-21T00:59:05;52.55;;;22.00;;
25553;SDS011;13446;50.926;5.332;2023-11-21T01:01:32;59.10;;;23.27;;
25553;SDS011;13446;50.926;5.332;2023-11-21T01:03:57;58.97;;;23.55;;
25553;SDS011;13446;50.926;5.332;2023-11-21T01:06:23;57.65;;;24.17;;
25553;SDS011;13446;50.926;5.332;2023-11-21T01:08:49;58.25;;;23.60;;
25553;SDS011;13446;50.926;5.332;2023-11-21T01:11:14;62.60;;;24.23;;
25553;SDS011;13446;50.926;5.332;2023-11-21T01:13:40;55.67;;;23.02;;
25553;SDS011;13446;50.926;5.332;2023-11-21T01:16:07;57.30;;;22.52;;
25553;SDS011;13446;50.926;5.332;2023-11-21T01:18:33;54.00;;;21.88;;
25553;SDS011;13446;50.926;5.332;2023-11-21T01:21:00;54.88;;;22.98;;
25553;SDS011;13446;50.926;5.332;2023-11-21T01:23:26;62.80;;;24.13;;
25553;SDS011;13446;50.926;5.332;2023-11-21T01:25:52;63.22;;;23.85;;
25553;SDS011;13446;50.926;5.332;2023-11-21T01:28:18;57.05;;;23.80;;
25553;SDS011;13446;50.926;5.332;2023-11-21T01:30:45;55.95;;;24.08;;
25553;SDS011;13446;50.926;5.332;2023-11-21T01:33:11;69.70;;;25.20;;
25553;SDS011;13446;50.926;5.332;2023-11-21T01:35:37;51.28;;;23.85;;
25553;SDS011;13446;50.926;5.332;2023-11-21T01:38:03;54.05;;;23.58;;
25553;SDS011;13446;50.926;5.332;2023-11-21T01:40:29;65.55;;;24.77;;
25553;SDS011;13446;50.926;5.332;2023-11-21T01:42:55;61.60;;;24.48;;
25553;SDS011;13446;50.926;5.332;2023-11-21T01:45:22;60.15;;;23.90;;
25553;SDS011;13446;50.926;5.332;2023-11-21T01:47:50;58.60;;;25.00;;
25553;SDS011;13446;50.926;5.332;2023-11-21T01:50:16;61.33;;;25.55;;
25553;SDS011;13446;50.926;5.332;2023-11-21T01:52:44;65.63;;;25.40;;
25553;SDS011;13446;50.926;5.332;2023-11-21T01:55:11;61.20;;;25.80;;
25553;SDS011;13446;50.926;5.332;2023-11-21T01:57:39;69.80;;;26.30;;
25553;SDS011;13446;50.926;5.332;2023-11-21T02:00:05;69.15;;;25.95;;
25553;SDS011;13446;50.926;5.332;2023-11-21T02:02:43;66.55;;;26.17;;
25553;SDS011;13446;50.926;5.332;2023-11-21T02:05:16;74.37;;;25.60;;
25553;SDS011;13446;50.926;5.332;2023-11-21T02:07:43;63.95;;;24.63;;
25553;SDS011;13446;50.926;5.332;2023-11-21T02:12:54;74.78;;;26.70;;
25553;SDS011;13446;50.926;5.332;2023-11-21T02:15:21;69.63;;;27.60;;
25553;SDS011;13446;50.926;5.332;2023-11-21T02:17:48;74.72;;;27.17;;
25553;SDS011;13446;50.926;5.332;2023-11-21T02:20:16;76.63;;;28.40;;
25553;SDS011;13446;50.926;5.332;2023-11-21T02:22:44;92.30;;;28.80;;
25553;SDS011;13446;50.926;5.332;2023-11-21T02:25:27;75.50;;;28.73;;
25553;SDS011;13446;50.926;5.332;2023-11-21T02:27:54;92.32;;;28.80;;
25553;SDS011;13446;50.926;5.332;2023-11-21T02:30:21;83.85;;;28.70;;
25553;SDS011;13446;50.926;5.332;2023-11-21T02:32:51;91.75;;;29.50;;
25553;SDS011;13446;50.926;5.332;2023-11-21T02:35:22;93.25;;;31.35;;
25553;SDS011;13446;50.926;5.332;2023-11-21T02:37:51;95.45;;;30.92;;
25553;SDS011;13446;50.926;5.332;2023-11-21T02:40:17;94.07;;;30.52;;
25553;SDS011;13446;50.926;5.332;2023-11-21T02:42:43;88.57;;;30.63;;
25553;SDS011;13446;50.926;5.332;2023-11-21T02:45:10;93.90;;;30.83;;
25553;SDS011;13446;50.926;5.332;2023-11-21T02:47:37;88.10;;;30.42;;
25553;SDS011;13446;50.926;5.332;2023-11-21T02:50:06;92.65;;;30.52;;
25553;SDS011;13446;50.926;5.332;2023-11-21T02:52:34;89.15;;;32.30;;
25553;SDS011;13446;50.926;5.332;2023-11-21T02:55:00;102.15;;;33.00;;
25553;SDS011;13446;50.926;5.332;2023-11-21T02:57:29;102.38;;;32.70;;
25553;SDS011;13446;50.926;5.332;2023-11-21T02:59:55;96.03;;;31.33;;
25553;SDS011;13446;50.926;5.332;2023-11-21T03:02:21;94.65;;;33.22;;
25553;SDS011;13446;50.926;5.332;2023-11-21T03:04:47;95.72;;;32.97;;
25553;SDS011;13446;50.926;5.332;2023-11-21T03:07:14;100.40;;;32.35;;
25553;SDS011;13446;50.926;5.332;2023-11-21T03:09:43;97.32;;;32.47;;
25553;SDS011;13446;50.926;5.332;2023-11-21T03:12:09;100.57;;;34.30;;
25553;SDS011;13446;50.926;5.332;2023-11-21T03:14:37;112.63;;;35.28;;
25553;SDS011;13446;50.926;5.332;2023-11-21T03:17:03;107.55;;;34.20;;
25553;SDS011;13446;50.926;5.332;2023-11-21T03:19:29;103.40;;;36.00;;
25553;SDS011;13446;50.926;5.332;2023-11-21T03:21:55;102.68;;;35.65;;
25553;SDS011;13446;50.926;5.332;2023-11-21T03:24:21;111.65;;;34.45;;
25553;SDS011;13446;50.926;5.332;2023-11-21T03:26:47;109.07;;;34.15;;
25553;SDS011;13446;50.926;5.332;2023-11-21T03:29:14;106.72;;;34.33;;
25553;SDS011;13446;50.926;5.332;2023-11-21T03:31:40;109.45;;;35.70;;
25553;SDS011;13446;50.926;5.332;2023-11-21T03:34:06;101.07;;;33.95;;
25553;SDS011;13446;50.926;5.332;2023-11-21T03:36:31;106.28;;;33.13;;
25553;SDS011;13446;50.926;5.332;2023-11-21T03:38:57;110.63;;;34.80;;
25553;SDS011;13446;50.926;5.332;2023-11-21T03:41:23;113.68;;;35.83;;
25553;SDS011;13446;50.926;5.332;2023-11-21T03:43:49;117.05;;;36.03;;
25553;SDS011;13446;50.926;5.332;2023-11-21T03:46:14;107.72;;;34.15;;
25553;SDS011;13446;50.926;5.332;2023-11-21T03:48:40;104.10;;;34.17;;
25553;SDS011;13446;50.926;5.332;2023-11-21T03:51:07;110.47;;;33.75;;
25553;SDS011;13446;50.926;5.332;2023-11-21T03:53:32;107.72;;;35.45;;
25553;SDS011;13446;50.926;5.332;2023-11-21T03:55:58;109.28;;;36.55;;
25553;SDS011;13446;50.926;5.332;2023-11-21T03:58:24;99.20;;;34.83;;
25553;SDS011;13446;50.926;5.332;2023-11-21T04:00:49;96.63;;;33.17;;
25553;SDS011;13446;50.926;5.332;2023-11-21T04:03:15;106.05;;;35.95;;
25553;SDS011;13446;50.926;5.332;2023-11-21T04:05:41;112.95;;;33.88;;
25553;SDS011;13446;50.926;5.332;2023-11-21T04:08:07;96.20;;;32.53;;
25553;SDS011;13446;50.926;5.332;2023-11-21T04:10:32;103.25;;;32.63;;
25553;SDS011;13446;50.926;5.332;2023-11-21T04:12:58;97.50;;;32.38;;
25553;SDS011;13446;50.926;5.332;2023-11-21T04:15:25;99.63;;;31.25;;
25553;SDS011;13446;50.926;5.332;2023-11-21T04:17:51;107.57;;;33.13;;
25553;SDS011;13446;50.926;5.332;2023-11-21T04:20:17;104.88;;;33.33;;
25553;SDS011;13446;50.926;5.332;2023-11-21T04:22:43;115.60;;;35.05;;
25553;SDS011;13446;50.926;5.332;2023-11-21T04:25:10;110.63;;;34.22;;
25553;SDS011;13446;50.926;5.332;2023-11-21T04:27:36;119.15;;;34.22;;
25553;SDS011;13446;50.926;5.332;2023-11-21T04:30:04;110.30;;;31.70;;
25553;SDS011;13446;50.926;5.332;2023-11-21T04:32:30;109.65;;;32.35;;
25553;SDS011;13446;50.926;5.332;2023-11-21T04:34:56;116.40;;;34.45;;
25553;SDS011;13446;50.926;5.332;2023-11-21T04:37:22;112.97;;;31.17;;
25553;SDS011;13446;50.926;5.332;2023-11-21T04:40:00;112.00;;;34.55;;
25553;SDS011;13446;50.926;5.332;2023-11-21T04:42:35;115.45;;;32.70;;
25553;SDS011;13446;50.926;5.332;2023-11-21T04:45:14;123.38;;;35.33;;
25553;SDS011;13446;50.926;5.332;2023-11-21T04:47:39;122.85;;;35.08;;
25553;SDS011;13446;50.926;5.332;2023-11-21T04:50:05;133.63;;;35.50;;
25553;SDS011;13446;50.926;5.332;2023-11-21T04:52:31;133.32;;;36.10;;
25553;SDS011;13446;50.926;5.332;2023-11-21T04:54:58;133.32;;;35.90;;
25553;SDS011;13446;50.926;5.332;2023-11-21T04:57:26;143.13;;;35.63;;
25553;SDS011;13446;50.926;5.332;2023-11-21T04:59:53;195.25;;;35.95;;
25553;SDS011;13446;50.926;5.332;2023-11-21T05:02:28;142.65;;;35.88;;
25553;SDS011;13446;50.926;5.332;2023-11-21T05:04:54;154.35;;;37.13;;
25553;SDS011;13446;50.926;5.332;2023-11-21T05:07:21;160.70;;;36.20;;
25553;SDS011;13446;50.926;5.332;2023-11-21T05:09:47;162.40;;;37.30;;
25553;SDS011;13446;50.926;5.332;2023-11-21T05:12:13;197.10;;;36.03;;
25553;SDS011;13446;50.926;5.332;2023-11-21T05:14:39;154.90;;;35.75;;
25553;SDS011;13446;50.926;5.332;2023-11-21T05:17:05;173.10;;;35.17;;
25553;SDS011;13446;50.926;5.332;2023-11-21T05:19:32;322.90;;;37.33;;
25553;SDS011;13446;50.926;5.332;2023-11-21T05:21:59;280.48;;;37.78;;
25553;SDS011;13446;50.926;5.332;2023-11-21T05:24:26;175.52;;;35.47;;
25553;SDS011;13446;50.926;5.332;2023-11-21T05:26:51;127.85;;;31.98;;
25553;SDS011;13446;50.926;5.332;2023-11-21T05:29:17;118.15;;;31.92;;
25553;SDS011;13446;50.926;5.332;2023-11-21T05:31:43;100.55;;;30.85;;
25553;SDS011;13446;50.926;5.332;2023-11-21T05:34:09;113.35;;;31.90;;
25553;SDS011;13446;50.926;5.332;2023-11-21T05:36:35;137.52;;;33.67;;
25553;SDS011;13446;50.926;5.332;2023-11-21T05:39:00;137.18;;;32.72;;
25553;SDS011;13446;50.926;5.332;2023-11-21T05:41:28;128.18;;;31.67;;
25553;SDS011;13446;50.926;5.332;2023-11-21T05:43:53;121.43;;;31.52;;
25553;SDS011;13446;50.926;5.332;2023-11-21T05:46:20;111.82;;;31.10;;
25553;SDS011;13446;50.926;5.332;2023-11-21T05:48:46;117.18;;;31.52;;
25553;SDS011;13446;50.926;5.332;2023-11-21T05:51:12;94.00;;;29.10;;
25553;SDS011;13446;50.926;5.332;2023-11-21T05:53:39;100.57;;;29.95;;
25553;SDS011;13446;50.926;5.332;2023-11-21T05:56:04;105.30;;;30.15;;
25553;SDS011;13446;50.926;5.332;2023-11-21T05:58:30;112.13;;;30.58;;
25553;SDS011;13446;50.926;5.332;2023-11-21T06:00:56;111.18;;;30.92;;
25553;SDS011;13446;50.926;5.332;2023-11-21T06:03:22;119.35;;;31.60;;
25553;SDS011;13446;50.926;5.332;2023-11-21T06:05:48;126.75;;;31.52;;
25553;SDS011;13446;50.926;5.332;2023-11-21T06:08:14;135.98;;;32.00;;
25553;SDS011;13446;50.926;5.332;2023-11-21T06:10:42;115.68;;;32.22;;
25553;SDS011;13446;50.926;5.332;2023-11-21T06:13:12;146.65;;;31.98;;
25553;SDS011;13446;50.926;5.332;2023-11-21T06:15:37;113.80;;;29.95;;
25553;SDS011;13446;50.926;5.332;2023-11-21T06:18:04;131.73;;;32.53;;
25553;SDS011;13446;50.926;5.332;2023-11-21T06:23:02;124.40;;;30.50;;
25553;SDS011;13446;50.926;5.332;2023-11-21T06:25:31;208.35;;;34.17;;
25553;SDS011;13446;50.926;5.332;2023-11-21T06:28:01;188.35;;;34.40;;
25553;SDS011;13446;50.926;5.332;2023-11-21T06:30:26;149.65;;;33.72;;
25553;SDS011;13446;50.926;5.332;2023-11-21T06:32:54;267.27;;;35.80;;
25553;SDS011;13446;50.926;5.332;2023-11-21T06:35:21;241.95;;;35.47;;
25553;SDS011;13446;50.926;5.332;2023-11-21T06:37:47;139.68;;;33.20;;
25553;SDS011;13446;50.926;5.332;2023-11-21T06:40:22;142.48;;;32.65;;
25553;SDS011;13446;50.926;5.332;2023-11-21T06:43:03;136.10;;;33.90;;
25553;SDS011;13446;50.926;5.332;2023-11-21T06:45:45;157.18;;;34.67;;
25553;SDS011;13446;50.926;5.332;2023-11-21T06:48:23;136.15;;;33.17;;
25553;SDS011;13446;50.926;5.332;2023-11-21T06:50:55;132.32;;;35.67;;
25553;SDS011;13446;50.926;5.332;2023-11-21T06:53:27;121.38;;;34.40;;
25553;SDS011;13446;50.926;5.332;2023-11-21T06:55:55;129.00;;;35.72;;
25553;SDS011;13446;50.926;5.332;2023-11-21T06:58:30;150.60;;;36.55;;
25553;SDS011;13446;50.926;5.332;2023-11-21T07:00:59;135.95;;;35.90;;
25553;SDS011;13446;50.926;5.332;2023-11-21T07:05:56;155.65;;;37.50;;
25553;SDS011;13446;50.926;5.332;2023-11-21T07:08:37;151.25;;;36.25;;
25553;SDS011;13446;50.926;5.332;2023-11-21T07:11:12;142.88;;;37.08;;
25553;SDS011;13446;50.926;5.332;2023-11-21T07:13:38;154.75;;;36.92;;
25553;SDS011;13446;50.926;5.332;2023-11-21T07:18:29;137.27;;;39.55;;
25553;SDS011;13446;50.926;5.332;2023-11-21T07:20:56;134.63;;;39.60;;
25553;SDS011;13446;50.926;5.332;2023-11-21T07:23:39;133.73;;;38.28;;
25553;SDS011;13446;50.926;5.332;2023-11-21T07:26:04;134.13;;;36.90;;
25553;SDS011;13446;50.926;5.332;2023-11-21T07:28:34;131.73;;;36.93;;
25553;SDS011;13446;50.926;5.332;2023-11-21T07:31:00;135.40;;;37.45;;
25553;SDS011;13446;50.926;5.332;2023-11-21T07:33:48;136.20;;;37.90;;
25553;SDS011;13446;50.926;5.332;2023-11-21T07:36:14;137.63;;;37.13;;
25553;SDS011;13446;50.926;5.332;2023-11-21T07:38:43;129.80;;;36.75;;
25553;SDS011;13446;50.926;5.332;2023-11-21T07:41:11;132.63;;;37.13;;
25553;SDS011;13446;50.926;5.332;2023-11-21T07:43:40;145.15;;;38.70;;
25553;SDS011;13446;50.926;5.332;2023-11-21T07:46:22;135.77;;;36.53;;
25553;SDS011;13446;50.926;5.332;2023-11-21T07:48:55;126.85;;;35.90;;
25553;SDS011;13446;50.926;5.332;2023-11-21T07:51:20;121.68;;;35.08;;
25553;SDS011;13446;50.926;5.332;2023-11-21T07:53:47;112.13;;;35.33;;
25553;SDS011;13446;50.926;5.332;2023-11-21T07:56:25;118.63;;;35.00;;
25553;SDS011;13446;50.926;5.332;2023-11-21T07:58:50;106.43;;;33.55;;
25553;SDS011;13446;50.926;5.332;2023-11-21T08:01:16;112.60;;;34.38;;
25553;SDS011;13446;50.926;5.332;2023-11-21T08:03:42;100.72;;;30.90;;
25553;SDS011;13446;50.926;5.332;2023-11-21T08:06:14;95.80;;;31.27;;
25553;SDS011;13446;50.926;5.332;2023-11-21T08:08:40;106.30;;;31.80;;
25553;SDS011;13446;50.926;5.332;2023-11-21T08:11:06;93.22;;;31.02;;
25553;SDS011;13446;50.926;5.332;2023-11-21T08:13:33;101.60;;;32.22;;
25553;SDS011;13446;50.926;5.332;2023-11-21T08:15:59;93.38;;;31.70;;
25553;SDS011;13446;50.926;5.332;2023-11-21T08:18:42;97.85;;;31.50;;
25553;SDS011;13446;50.926;5.332;2023-11-21T08:21:09;102.72;;;31.38;;
25553;SDS011;13446;50.926;5.332;2023-11-21T08:23:37;89.78;;;31.65;;
25553;SDS011;13446;50.926;5.332;2023-11-21T08:26:04;102.72;;;31.27;;
25553;SDS011;13446;50.926;5.332;2023-11-21T08:28:30;91.63;;;32.15;;
25553;SDS011;13446;50.926;5.332;2023-11-21T08:30:56;103.85;;;32.30;;
25553;SDS011;13446;50.926;5.332;2023-11-21T08:33:22;97.85;;;31.35;;
25553;SDS011;13446;50.926;5.332;2023-11-21T08:35:48;98.93;;;31.40;;
25553;SDS011;13446;50.926;5.332;2023-11-21T08:38:13;98.43;;;32.95;;
25553;SDS011;13446;50.926;5.332;2023-11-21T08:40:39;87.05;;;31.00;;
25553;SDS011;13446;50.926;5.332;2023-11-21T08:43:05;94.15;;;30.30;;
25553;SDS011;13446;50.926;5.332;2023-11-21T08:45:32;92.60;;;31.80;;
25553;SDS011;13446;50.926;5.332;2023-11-21T08:47:59;88.15;;;30.98;;
25553;SDS011;13446;50.926;5.332;2023-11-21T08:50:28;87.55;;;31.05;;
25553;SDS011;13446;50.926;5.332;2023-11-21T08:53:00;75.47;;;28.85;;
25553;SDS011;13446;50.926;5.332;2023-11-21T08:55:26;74.70;;;29.20;;
25553;SDS011;13446;50.926;5.332;2023-11-21T08:58:02;78.28;;;29.17;;
25553;SDS011;13446;50.926;5.332;2023-11-21T09:00:30;76.50;;;28.38;;
25553;SDS011;13446;50.926;5.332;2023-11-21T09:02:56;73.13;;;26.73;;
25553;SDS011;13446;50.926;5.332;2023-11-21T09:05:38;73.30;;;27.90;;
25553;SDS011;13446;50.926;5.332;2023-11-21T09:08:16;79.65;;;28.23;;
25553;SDS011;13446;50.926;5.332;2023-11-21T09:10:47;71.40;;;26.33;;
25553;SDS011;13446;50.926;5.332;2023-11-21T09:13:15;75.28;;;27.95;;
25553;SDS011;13446;50.926;5.332;2023-11-21T09:15:42;74.15;;;27.23;;
25553;SDS011;13446;50.926;5.332;2023-11-21T09:18:11;73.07;;;28.52;;
25553;SDS011;13446;50.926;5.332;2023-11-21T09:21:03;74.40;;;26.63;;
25553;SDS011;13446;50.926;5.332;2023-11-21T09:23:29;63.47;;;26.38;;
25553;SDS011;13446;50.926;5.332;2023-11-21T09:25:55;55.67;;;23.73;;
25553;SDS011;13446;50.926;5.332;2023-11-21T09:31:07;59.10;;;23.30;;
25553;SDS011;13446;50.926;5.332;2023-11-21T09:33:34;54.13;;;21.77;;
25553;SDS011;13446;50.926;5.332;2023-11-21T09:36:01;53.58;;;22.58;;
25553;SDS011;13446;50.926;5.332;2023-11-21T09:38:38;51.45;;;21.65;;
25553;SDS011;13446;50.926;5.332;2023-11-21T09:41:04;47.85;;;20.85;;
25553;SDS011;13446;50.926;5.332;2023-11-21T09:43:51;50.42;;;21.00;;
25553;SDS011;13446;50.926;5.332;2023-11-21T09:46:34;50.63;;;22.48;;
25553;SDS011;13446;50.926;5.332;2023-11-21T09:49:13;49.10;;;21.40;;
25553;SDS011;13446;50.926;5.332;2023-11-21T09:55:05;46.70;;;21.55;;
25553;SDS011;13446;50.926;5.332;2023-11-21T09:57:44;49.05;;;21.70;;
25553;SDS011;13446;50.926;5.332;2023-11-21T10:00:19;44.03;;;21.30;;
25553;SDS011;13446;50.926;5.332;2023-11-21T10:02:57;49.55;;;21.95;;
25553;SDS011;13446;50.926;5.332;2023-11-21T10:05:32;52.72;;;22.38;;
25553;SDS011;13446;50.926;5.332;2023-11-21T10:08:17;54.20;;;22.67;;
25553;SDS011;13446;50.926;5.332;2023-11-21T10:10:46;52.83;;;22.23;;
25553;SDS011;13446;50.926;5.332;2023-11-21T10:13:14;46.67;;;21.15;;
25553;SDS011;13446;50.926;5.332;2023-11-21T10:15:43;47.17;;;20.90;;
25553;SDS011;13446;50.926;5.332;2023-11-21T10:18:25;41.70;;;20.48;;
25553;SDS011;13446;50.926;5.332;2023-11-21T10:23:43;42.80;;;20.67;;
25553;SDS011;13446;50.926;5.332;2023-11-21T10:26:21;51.50;;;20.73;;
25553;SDS011;13446;50.926;5.332;2023-11-21T10:28:55;48.70;;;20.67;;
25553;SDS011;13446;50.926;5.332;2023-11-21T10:36:42;50.08;;;20.27;;
25553;SDS011;13446;50.926;5.332;2023-11-21T10:39:38;42.67;;;19.75;;
25553;SDS011;13446;50.926;5.332;2023-11-21T10:42:04;42.45;;;19.75;;
25553;SDS011;13446;50.926;5.332;2023-11-21T10:45:01;46.17;;;20.75;;
25553;SDS011;13446;50.926;5.332;2023-11-21T10:47:41;50.60;;;21.77;;
25553;SDS011;13446;50.926;5.332;2023-11-21T10:50:24;48.40;;;21.58;;
25553;SDS011;13446;50.926;5.332;2023-11-21T10:53:04;48.45;;;23.00;;
25553;SDS011;13446;50.926;5.332;2023-11-21T10:55:36;46.63;;;21.00;;
25553;SDS011;13446;50.926;5.332;2023-11-21T10:58:02;49.20;;;21.30;;
25553;SDS011;13446;50.926;5.332;2023-11-21T11:00:47;50.88;;;21.65;;
25553;SDS011;13446;50.926;5.332;2023-11-21T11:03:13;49.42;;;21.13;;
25553;SDS011;13446;50.926;5.332;2023-11-21T11:05:48;44.80;;;20.85;;
25553;SDS011;13446;50.926;5.332;2023-11-21T11:08:16;45.17;;;21.10;;
25553;SDS011;13446;50.926;5.332;2023-11-21T11:10:51;44.33;;;20.08;;
25553;SDS011;13446;50.926;5.332;2023-11-21T11:13:18;48.53;;;20.70;;
25553;SDS011;13446;50.926;5.332;2023-11-21T11:15:57;35.17;;;16.92;;
25553;SDS011;13446;50.926;5.332;2023-11-21T11:18:25;35.75;;;17.33;;
25553;SDS011;13446;50.926;5.332;2023-11-21T11:20:51;41.35;;;18.80;;
25553;SDS011;13446;50.926;5.332;2023-11-21T11:35:17;42.92;;;20.83;;
25553;SDS011;13446;50.926;5.332;2023-11-21T11:38:04;38.17;;;19.08;;
25553;SDS011;13446;50.926;5.332;2023-11-21T11:50:21;47.10;;;22.35;;
25553;SDS011;13446;50.926;5.332;2023-11-21T11:55:44;50.03;;;21.90;;
25553;SDS011;13446;50.926;5.332;2023-11-21T11:58:13;50.53;;;22.55;;
25553;SDS011;13446;50.926;5.332;2023-11-21T12:00:57;58.22;;;22.40;;
25553;SDS011;13446;50.926;5.332;2023-11-21T12:03:38;60.50;;;24.92;;
25553;SDS011;13446;50.926;5.332;2023-11-21T12:06:05;53.72;;;22.25;;
25553;SDS011;13446;50.926;5.332;2023-11-21T12:08:32;50.25;;;21.75;;
25553;SDS011;13446;50.926;5.332;2023-11-21T12:10:58;43.90;;;21.23;;
25553;SDS011;13446;50.926;5.332;2023-11-21T12:13:27;49.47;;;22.27;;
25553;SDS011;13446;50.926;5.332;2023-11-21T12:15:53;45.20;;;21.45;;
25553;SDS011;13446;50.926;5.332;2023-11-21T12:18:20;47.47;;;23.13;;
25553;SDS011;13446;50.926;5.332;2023-11-21T12:20:47;47.75;;;23.27;;
25553;SDS011;13446;50.926;5.332;2023-11-21T12:23:35;46.95;;;23.55;;
25553;SDS011;13446;50.926;5.332;2023-11-21T12:26:22;47.25;;;23.13;;
25553;SDS011;13446;50.926;5.332;2023-11-21T12:28:52;52.13;;;24.10;;
25553;SDS011;13446;50.926;5.332;2023-11-21T12:31:30;53.67;;;23.17;;
25553;SDS011;13446;50.926;5.332;2023-11-21T12:34:14;56.20;;;24.85;;
25553;SDS011;13446;50.926;5.332;2023-11-21T12:36:46;48.47;;;23.60;;
25553;SDS011;13446;50.926;5.332;2023-11-21T12:39:11;50.67;;;23.38;;
25553;SDS011;13446;50.926;5.332;2023-11-21T12:41:37;47.90;;;21.15;;
25553;SDS011;13446;50.926;5.332;2023-11-21T12:44:04;44.75;;;21.45;;
25553;SDS011;13446;50.926;5.332;2023-11-21T12:46:43;38.90;;;19.95;;
25553;SDS011;13446;50.926;5.332;2023-11-21T12:49:12;42.80;;;21.48;;
25553;SDS011;13446;50.926;5.332;2023-11-21T12:51:44;47.72;;;21.25;;
25553;SDS011;13446;50.926;5.332;2023-11-21T12:54:29;44.47;;;22.58;;
25553;SDS011;13446;50.926;5.332;2023-11-21T12:56:59;44.90;;;21.10;;
25553;SDS011;13446;50.926;5.332;2023-11-21T12:59:25;48.47;;;22.48;;
25553;SDS011;13446;50.926;5.332;2023-11-21T13:02:09;50.70;;;23.60;;
25553;SDS011;13446;50.926;5.332;2023-11-21T13:04:54;47.83;;;22.40;;
25553;SDS011;13446;50.926;5.332;2023-11-21T13:07:23;42.08;;;21.48;;
25553;SDS011;13446;50.926;5.332;2023-11-21T13:09:52;49.30;;;22.92;;
25553;SDS011;13446;50.926;5.332;2023-11-21T13:12:23;43.60;;;21.77;;
25553;SDS011;13446;50.926;5.332;2023-11-21T13:14:50;45.38;;;23.00;;
25553;SDS011;13446;50.926;5.332;2023-11-21T13:17:16;45.80;;;22.77;;
25553;SDS011;13446;50.926;5.332;2023-11-21T13:19:52;48.50;;;23.27;;
25553;SDS011;13446;50.926;5.332;2023-11-21T13:22:19;54.53;;;25.52;;
25553;SDS011;13446;50.926;5.332;2023-11-21T13:24:46;48.05;;;24.25;;
25553;SDS011;13446;50.926;5.332;2023-11-21T13:27:36;52.25;;;25.63;;
25553;SDS011;13446;50.926;5.332;2023-11-21T13:30:15;46.90;;;24.73;;
25553;SDS011;13446;50.926;5.332;2023-11-21T13:33:03;57.47;;;26.60;;
25553;SDS011;13446;50.926;5.332;2023-11-21T13:35:44;53.40;;;26.23;;
25553;SDS011;13446;50.926;5.332;2023-11-21T13:38:15;55.55;;;27.45;;
25553;SDS011;13446;50.926;5.332;2023-11-21T13:40:54;57.63;;;27.40;;
25553;SDS011;13446;50.926;5.332;2023-11-21T13:43:41;53.13;;;25.88;;
25553;SDS011;13446;50.926;5.332;2023-11-21T13:48:46;54.75;;;25.85;;
25553;SDS011;13446;50.926;5.332;2023-11-21T13:51:21;54.65;;;24.67;;
25553;SDS011;13446;50.926;5.332;2023-11-21T13:53:56;46.67;;;22.40;;
25553;SDS011;13446;50.926;5.332;2023-11-21T13:56:24;42.58;;;21.33;;
25553;SDS011;13446;50.926;5.332;2023-11-21T13:58:53;47.17;;;21.10;;
25553;SDS011;13446;50.926;5.332;2023-11-21T14:01:21;47.50;;;20.63;;
25553;SDS011;13446;50.926;5.332;2023-11-21T14:03:58;34.47;;;19.33;;
25553;SDS011;13446;50.926;5.332;2023-11-21T14:06:55;38.65;;;19.80;;
25553;SDS011;13446;50.926;5.332;2023-11-21T14:09:21;40.13;;;20.17;;
25553;SDS011;13446;50.926;5.332;2023-11-21T14:12:02;39.13;;;19.30;;
25553;SDS011;13446;50.926;5.332;2023-11-21T14:14:31;40.20;;;20.10;;
25553;SDS011;13446;50.926;5.332;2023-11-21T14:16:57;35.08;;;19.17;;
25553;SDS011;13446;50.926;5.332;2023-11-21T14:19:33;37.08;;;17.95;;
25553;SDS011;13446;50.926;5.332;2023-11-21T14:22:01;38.38;;;18.30;;
25553;SDS011;13446;50.926;5.332;2023-11-21T14:24:32;36.58;;;18.65;;
25553;SDS011;13446;50.926;5.332;2023-11-21T14:26:57;34.20;;;17.10;;
25553;SDS011;13446;50.926;5.332;2023-11-21T14:29:38;31.88;;;18.00;;
25553;SDS011;13446;50.926;5.332;2023-11-21T14:32:14;35.15;;;17.42;;
25553;SDS011;13446;50.926;5.332;2023-11-21T14:34:41;35.08;;;18.05;;
25553;SDS011;13446;50.926;5.332;2023-11-21T14:40:09;31.30;;;16.50;;
25553;SDS011;13446;50.926;5.332;2023-11-21T14:42:36;33.92;;;17.40;;
25553;SDS011;13446;50.926;5.332;2023-11-21T14:45:26;34.92;;;18.00;;
25553;SDS011;13446;50.926;5.332;2023-11-21T14:47:53;30.20;;;17.13;;
25553;SDS011;13446;50.926;5.332;2023-11-21T14:50:36;34.85;;;17.83;;
25553;SDS011;13446;50.926;5.332;2023-11-21T14:53:30;31.33;;;17.05;;
25553;SDS011;13446;50.926;5.332;2023-11-21T14:56:18;31.83;;;16.65;;
25553;SDS011;13446;50.926;5.332;2023-11-21T14:58:59;31.73;;;16.92;;
25553;SDS011;13446;50.926;5.332;2023-11-21T15:01:55;32.05;;;16.45;;
25553;SDS011;13446;50.926;5.332;2023-11-21T15:04:31;29.67;;;16.60;;
25553;SDS011;13446;50.926;5.332;2023-11-21T15:07:17;27.15;;;15.43;;
25553;SDS011;13446;50.926;5.332;2023-11-21T15:09:49;27.58;;;15.77;;
25553;SDS011;13446;50.926;5.332;2023-11-21T15:12:15;26.52;;;15.07;;
25553;SDS011;13446;50.926;5.332;2023-11-21T15:14:41;27.15;;;14.73;;
25553;SDS011;13446;50.926;5.332;2023-11-21T15:17:10;24.27;;;13.85;;
25553;SDS011;13446;50.926;5.332;2023-11-21T15:22:08;26.75;;;14.77;;
25553;SDS011;13446;50.926;5.332;2023-11-21T15:24:55;32.50;;;16.52;;
25553;SDS011;13446;50.926;5.332;2023-11-21T15:27:31;27.70;;;15.10;;
25553;SDS011;13446;50.926;5.332;2023-11-21T15:29:59;27.83;;;15.38;;
25553;SDS011;13446;50.926;5.332;2023-11-21T15:32:24;33.88;;;16.95;;